Latest Weather Observations for Bunbury

IDW60801

Issued at 5:03 pm WST Saturday 16 December 2017 (issued every 30 minutes, with the page automatically refreshed every 10 minutes)

About weather observations | Map of weather stations | Latest weather observations for WA | Other Formats
Station Details ID: 009965 Name: BUNBURY Lat: -33.36 Lon: 115.64 Height: 5.2 m
Data from the previous 72 hours. | See also: Recent months at Bunbury
Date/Time
WST
Temp
°C
App
Temp
°C
Dew
Point
°C
Rel
Hum
%
Delta-T
°C
Wind Press
QNH
hPa
Press
MSL
hPa
Rain since
9am
mm
Dir  Spd
km/h
Gust
km/h
Spd
kts
Gust
kts
16/05:00pm 21.0 17.4 12.9 60 4.6 W 24 37 13 20 1004.9 1004.9 0.0
16/04:30pm 20.6 16.7 13.3 63 4.2 WSW 26 37 14 20 1005.3 1005.3 0.0
16/04:00pm 22.0 18.7 14.1 61 4.6 W 24 37 13 20 1005.5 1005.5 0.0
16/03:30pm 22.2 18.7 13.5 57 5.0 W 24 37 13 20 1005.7 1005.7 0.0
16/03:00pm 21.9 18.0 14.3 62 4.5 W 28 39 15 21 1005.8 1005.8 0.0
16/02:30pm 22.4 18.5 14.5 61 4.6 W 28 43 15 23 1006.0 1006.0 0.0
16/02:00pm 22.1 18.9 15.2 65 4.1 WSW 26 41 14 22 1006.0 1006.0 0.0
16/01:30pm 23.1 19.6 15.4 62 4.6 W 28 39 15 21 1006.3 1006.3 0.0
16/01:00pm 22.8 19.5 15.1 62 4.6 WSW 26 37 14 20 1006.5 1006.5 0.0
16/12:30pm 23.2 21.3 15.3 61 4.7 WSW 19 32 10 17 1006.7 1006.7 0.0
16/12:00pm 23.3 20.8 14.0 56 5.5 WSW 20 30 11 16 1007.2 1007.2 0.0
16/11:30am 23.6 21.5 13.5 53 5.9 W 17 24 9 13 1007.3 1007.3 0.0
16/11:00am 22.9 20.9 15.0 61 4.7 WSW 19 26 10 14 1007.7 1007.7 0.0
16/10:30am 22.8 21.4 14.6 60 4.8 WSW 15 20 8 11 1007.5 1007.5 0.0
16/10:00am 22.8 22.1 15.4 63 4.4 WSW 13 19 7 10 1007.8 1007.8 0.0
16/09:30am 21.9 20.8 14.3 62 4.4 W 13 19 7 10 1008.2 1008.2 0.0
16/09:00am 21.8 21.9 14.4 63 4.3 W 7 15 4 8 1008.5 1008.5 0.0
16/08:30am 21.1 21.8 13.5 62 4.4 NE 2 6 1 3 1008.9 1008.9 0.0
16/08:00am 20.1 20.7 13.1 64 4.0 N 2 9 1 5 1009.1 1009.1 0.0
16/07:30am 19.1 19.1 13.7 71 3.1 SW 6 9 3 5 1009.5 1009.5 0.0
16/07:00am 18.2 18.7 14.1 77 2.4 SSE 4 6 2 3 1009.8 1009.8 0.0
16/06:30am 16.2 15.9 13.3 83 1.6 SSE 7 11 4 6 1009.8 1009.8 0.0
16/06:00am 14.8 14.3 12.7 87 1.2 S 7 13 4 7 1010.2 1010.2 0.0
16/05:30am 13.7 12.6 11.8 88 1.0 SSW 9 13 5 7 1010.2 1010.2 0.0
16/05:00am 13.6 12.4 11.5 87 1.1 SSW 9 13 5 7 1010.3 1010.3 0.0
16/04:30am 14.3 13.7 11.8 85 1.3 SSE 6 9 3 5 1009.7 1009.7 0.0
16/04:00am 14.6 13.9 11.9 84 1.5 SSE 7 11 4 6 1009.5 1009.5 0.0
16/03:30am 14.8 13.7 11.8 82 1.6 SSE 9 15 5 8 1009.5 1009.5 0.0
16/03:00am 15.2 13.8 12.2 82 1.6 SSE 11 15 6 8 1009.5 1009.5 0.0
16/02:30am 15.4 14.0 12.2 81 1.7 SSE 11 15 6 8 1009.5 1009.5 0.0
16/02:00am 15.6 14.2 12.2 80 1.9 SSE 11 17 6 9 1009.6 1009.6 0.0
16/01:30am 16.0 14.6 12.2 78 2.1 SSE 11 17 6 9 1009.9 1009.9 0.0
16/01:00am 16.2 14.9 12.4 78 2.1 S 11 17 6 9 1010.2 1010.2 0.0
16/12:30am 16.4 14.7 12.4 77 2.2 SSE 13 17 7 9 1010.3 1010.3 0.0
16/12:00am 16.5 14.8 12.5 77 2.2 SSE 13 20 7 11 1010.2 1010.2 0.0
 
Date/Time
WST
Temp
°C
App
Temp
°C
Dew
Point
°C
Rel
Hum
%
Delta-T
°C
Wind Press
QNH
hPa
Press
MSL
hPa
Rain since
9am
mm
Dir  Spd
km/h
Gust
km/h
Spd
kts
Gust
kts
15/11:30pm 16.7 15.0 12.5 76 2.3 SSE 13 19 7 10 1010.2 1010.2 0.0
15/11:00pm 17.0 15.3 12.5 75 2.5 S 13 20 7 11 1010.6 1010.6 0.0
15/10:30pm 17.4 15.3 12.5 73 2.7 S 15 19 8 10 1010.9 1010.9 0.0
15/10:00pm 17.8 15.8 12.7 72 2.8 S 15 19 8 10 1011.1 1011.1 0.0
15/09:30pm 18.2 16.5 12.4 69 3.2 S 13 19 7 10 1011.0 1011.0 0.0
15/09:00pm 19.1 17.1 12.8 67 3.5 S 15 24 8 13 1010.9 1010.9 0.0
15/08:30pm 19.9 17.6 12.9 64 4.0 S 17 26 9 14 1010.7 1010.7 0.0
15/08:00pm 20.9 18.2 12.8 60 4.6 S 19 32 10 17 1010.6 1010.6 0.0
15/07:30pm 22.5 20.2 13.0 55 5.4 S 17 30 9 16 1010.4 1010.4 0.0
15/07:00pm 23.8 21.3 13.4 52 6.0 S 19 30 10 16 1010.1 1010.1 0.0
15/06:30pm 25.2 22.5 13.4 48 6.9 S 20 30 11 16 1009.7 1009.7 0.0
15/06:00pm 25.7 25.7 16.3 56 5.8 WSW 11 22 6 12 1009.5 1009.5 0.0
15/05:30pm 23.7 22.4 15.7 61 4.8 WSW 17 30 9 16 1009.7 1009.7 0.0
15/05:00pm 23.6 22.1 15.4 60 4.9 WSW 17 24 9 13 1010.0 1010.0 0.0
15/04:30pm 23.9 22.1 15.4 59 5.1 WSW 19 30 10 16 1010.2 1010.2 0.0
15/04:00pm 23.3 20.9 15.4 61 4.7 WSW 22 32 12 17 1010.6 1010.6 0.0
15/03:30pm 23.1 20.1 14.9 60 4.9 WSW 24 33 13 18 1011.0 1011.0 0.0
15/03:00pm 23.3 20.8 15.1 60 4.9 WSW 22 32 12 17 1011.0 1011.0 0.0
15/02:30pm 23.7 21.6 15.2 59 5.1 WSW 20 30 11 16 1011.2 1011.2 0.0
15/02:00pm 22.7 20.5 14.3 59 4.9 WSW 19 28 10 15 1011.4 1011.4 0.0
15/01:30pm 22.5 20.2 14.6 61 4.7 WSW 20 32 11 17 1011.7 1011.7 0.0
15/01:00pm 24.1 21.4 13.6 52 6.1 WSW 20 30 11 16 1012.0 1012.0 0.0
15/12:30pm 24.0 21.9 13.5 52 6.1 WSW 17 28 9 15 1012.5 1012.5 0.0
15/12:00pm 22.5 19.9 13.8 58 5.1 WSW 20 30 11 16 1012.8 1012.8 0.0
15/11:30am 22.6 20.2 13.7 57 5.2 WSW 19 28 10 15 1013.4 1013.4 0.0
15/11:00am 23.3 22.4 13.8 55 5.5 SW 11 20 6 11 1013.7 1013.7 0.0
15/10:30am 24.2 23.3 11.2 44 7.3 SSE 7 19 4 10 1013.8 1013.8 0.0
15/10:00am 23.6 21.7 10.6 44 7.2 SSE 11 15 6 8 1014.0 1013.9 0.0
15/09:30am 22.7 20.9 10.8 47 6.6 SE 11 17 6 9 1014.3 1014.2 0.0
15/09:00am 21.5 20.9 11.8 54 5.4 SE 6 13 3 7 1014.6 1014.5 0.0
15/08:30am 21.1 19.9 11.7 55 5.2 SE 9 15 5 8 1014.7 1014.6 0.0
15/08:00am 19.9 18.4 11.9 60 4.4 SE 11 22 6 12 1015.0 1014.9 0.0
15/07:30am 18.8 17.3 11.9 64 3.8 SE 11 17 6 9 1014.9 1014.8 0.0
15/07:00am 17.2 17.0 13.5 79 2.1 SE 7 13 4 7 1014.9 1014.8 0.0
15/06:30am 15.2 15.1 13.2 88 1.1 ESE 6 9 3 5 1014.8 1014.7 0.0
15/06:00am 12.5 12.1 11.1 91 0.7 E 4 6 2 3 1014.7 1014.6 0.0
15/05:30am 9.8 8.6 8.2 90 0.8 SSW 4 4 2 2 1014.8 1014.7 0.0
15/05:00am 10.5 9.5 8.9 90 0.8 SSW 4 6 2 3 1014.7 1014.6 0.0
15/04:30am 11.4 10.2 9.7 89 0.9 SSW 6 7 3 4 1014.5 1014.4 0.0
15/04:00am 10.9 9.5 9.0 88 0.9 SE 6 7 3 4 1014.5 1014.4 0.0
15/03:30am 11.1 10.1 9.0 87 1.0 SSE 4 6 2 3 1014.5 1014.4 0.0
15/03:00am 12.3 11.3 10.2 87 1.1 S 6 6 3 3 1014.7 1014.6 0.0
15/02:30am 12.6 11.5 10.1 85 1.3 S 6 7 3 4 1014.8 1014.7 0.0
15/02:00am 13.0 11.9 10.7 86 1.2 SSE 7 9 4 5 1014.8 1014.7 0.0
15/01:30am 12.9 11.9 10.3 84 1.3 S 6 7 3 4 1015.2 1015.1 0.0
15/01:00am 13.6 12.5 10.8 83 1.5 S 7 9 4 5 1015.6 1015.5 0.0
15/12:30am 13.8 12.7 10.8 82 1.6 SSW 7 9 4 5 1015.9 1015.8 0.0
15/12:00am 14.1 13.2 10.7 80 1.8 S 6 7 3 4 1016.0 1015.9 0.0
 
Date/Time
WST
Temp
°C
App
Temp
°C
Dew
Point
°C
Rel
Hum
%
Delta-T
°C
Wind Press
QNH
hPa
Press
MSL
hPa
Rain since
9am
mm
Dir  Spd
km/h
Gust
km/h
Spd
kts
Gust
kts
14/11:30pm 14.5 13.4 10.7 78 2.0 SSW 7 7 4 4 1016.1 1016.0 0.0
14/11:00pm 15.1 14.0 10.7 75 2.3 S 7 9 4 5 1016.1 1016.0 0.0
14/10:30pm 15.8 14.7 10.8 72 2.7 S 7 9 4 5 1016.2 1016.1 0.0
14/10:00pm 16.4 15.0 10.9 70 2.9 S 9 13 5 7 1016.3 1016.2 0.0
14/09:30pm 17.0 14.9 11.1 68 3.2 S 13 22 7 12 1016.4 1016.3 0.0
14/09:00pm 17.6 15.1 11.2 66 3.5 S 15 22 8 12 1016.4 1016.3 0.0
14/08:30pm 18.4 15.6 11.2 63 3.9 S 17 24 9 13 1016.3 1016.2 0.0
14/08:00pm 19.2 16.4 11.5 61 4.2 S 17 28 9 15 1016.0 1015.9 0.0
14/07:30pm 20.4 16.8 11.9 58 4.7 SSW 22 32 12 17 1015.8 1015.7 0.0
14/07:00pm 21.7 18.8 12.3 55 5.3 SSW 19 26 10 14 1015.4 1015.3 0.0
14/06:30pm 22.9 19.9 12.5 52 5.9 SSW 20 32 11 17 1015.1 1015.0 0.0
14/06:00pm 22.8 20.5 14.6 60 4.8 WSW 20 33 11 18 1014.8 1014.7 0.0
14/05:30pm 22.9 20.2 14.5 59 5.0 WSW 22 37 12 20 1014.6 1014.5 0.0
14/05:00pm 22.5 19.8 14.6 61 4.7 WSW 22 35 12 19 1014.8 1014.7 0.0
14/04:30pm 23.0 20.2 15.3 62 4.6 W 24 39 13 21 1015.0 1014.9 0.0
14/04:00pm 23.0 20.4 14.8 60 4.9 WSW 22 30 12 16 1015.2 1015.1 0.0
14/03:30pm 23.2 20.8 15.3 61 4.7 WSW 22 35 12 19 1015.5 1015.4 0.0
14/03:00pm 22.1 19.2 15.0 64 4.2 WSW 24 33 13 18 1015.8 1015.7 0.0
14/02:30pm 23.0 20.2 15.3 62 4.6 WSW 24 35 13 19 1016.1 1016.0 0.0
14/02:00pm 22.1 18.5 14.2 61 4.6 WSW 26 35 14 19 1016.3 1016.2 0.0
14/01:30pm 22.1 19.2 14.0 60 4.7 WSW 22 32 12 17 1016.5 1016.4 0.0
14/01:00pm 22.6 19.5 13.4 56 5.3 WSW 22 30 12 16 1016.7 1016.6 0.0
14/12:30pm 22.7 20.2 13.5 56 5.3 WSW 19 26 10 14 1017.0 1016.9 0.0
14/12:00pm 22.0 19.5 13.4 58 4.9 W 19 24 10 13 1017.2 1017.1 0.0
14/11:30am 21.5 19.3 13.4 60 4.7 W 17 24 9 13 1017.6 1017.5 0.0
14/11:00am 21.8 18.9 12.4 55 5.3 W 19 26 10 14 1018.0 1017.9 0.0
14/10:30am 21.7 19.5 12.0 54 5.4 W 15 24 8 13 1018.3 1018.2 0.0
14/10:00am 22.2 21.1 11.9 52 5.8 W 9 15 5 8 1018.4 1018.3 0.0
14/09:30am 22.0 21.6 11.1 50 6.0 SSW 4 15 2 8 1018.7 1018.6 0.0
14/09:00am 21.1 20.3 10.9 52 5.6 E 6 11 3 6 1018.9 1018.8 0.2
14/08:30am 21.4 20.1 11.4 53 5.5 E 9 15 5 8 1019.1 1019.0 0.2
14/08:00am 20.1 19.2 12.6 62 4.2 E 9 15 5 8 1019.3 1019.2 0.2
14/07:30am 18.5 18.3 12.9 70 3.1 E 6 9 3 5 1019.3 1019.2 0.2
14/07:00am 17.1 17.6 14.0 82 1.8 E 4 6 2 3 1019.4 1019.3 0.2
14/06:30am 15.5 16.7 13.7 89 1.0 CALM 0 0 0 0 1019.4 1019.3 0.2
14/06:00am 13.6 14.3 12.2 91 0.8 CALM 0 0 0 0 1019.3 1019.2 0.2
14/05:30am 12.0 12.2 10.6 91 0.7 CALM 0 0 0 0 1019.0 1018.9 0.2
14/05:00am 11.7 11.8 10.1 90 0.8 CALM 0 0 0 0 1018.8 1018.7 0.2
14/04:30am 12.6 12.9 10.8 89 0.9 CALM 0 0 0 0 1018.7 1018.6 0.2
14/04:00am 13.4 12.7 11.5 88 1.0 SE 6 6 3 3 1018.5 1018.4 0.2
14/03:30am 14.2 13.7 12.2 88 1.1 S 6 9 3 5 1018.5 1018.4 0.2
14/03:00am 14.0 13.3 12.0 88 1.1 S 7 13 4 7 1018.4 1018.3 0.2
14/02:30am 13.4 12.7 11.5 88 1.0 SSW 6 7 3 4 1018.3 1018.2 0.2
14/02:00am 13.7 13.1 11.6 87 1.1 S 6 9 3 5 1018.4 1018.3 0.2
14/01:30am 13.9 13.3 11.6 86 1.2 S 6 7 3 4 1018.6 1018.5 0.2
14/01:00am 14.3 13.7 11.6 84 1.4 SSW 6 9 3 5 1018.8 1018.7 0.2
14/12:30am 14.4 13.8 11.6 83 1.5 S 6 9 3 5 1019.0 1018.9 0.2
14/12:00am 14.7 14.4 11.3 80 1.8 S 4 6 2 3 1019.2 1019.1 0.2
 
Date/Time
WST
Temp
°C
App
Temp
°C
Dew
Point
°C
Rel
Hum
%
Delta-T
°C
Wind Press
QNH
hPa
Press
MSL
hPa
Rain since
9am
mm
Dir  Spd
km/h
Gust
km/h
Spd
kts
Gust
kts
13/11:30pm 15.2 14.3 11.4 78 2.0 S 7 9 4 5 1019.3 1019.2 0.2
13/11:00pm 16.1 14.6 11.9 76 2.3 S 11 19 6 10 1019.4 1019.3 0.2
13/10:30pm 16.3 14.6 11.2 72 2.7 S 11 17 6 9 1019.5 1019.4 0.2
13/10:00pm 16.8 15.1 11.1 69 3.1 SSW 11 19 6 10 1019.7 1019.6 0.2
13/09:30pm 17.0 15.5 10.6 66 3.4 SSW 9 13 5 7 1019.4 1019.3 0.2
13/09:00pm 17.6 15.6 10.2 62 3.9 S 11 15 6 8 1019.0 1018.9 0.2
13/08:30pm 17.8 15.5 10.4 62 3.9 S 13 17 7 9 1018.8 1018.7 0.2
13/08:00pm 18.3 16.0 10.4 60 4.2 S 13 19 7 10 1018.7 1018.6 0.2
13/07:30pm 19.2 15.7 10.2 56 4.8 S 19 35 10 19 1018.3 1018.2 0.2
13/07:00pm 20.3 16.8 11.0 55 5.1 S 20 35 11 19 1017.8 1017.7 0.2
13/06:30pm 21.4 17.4 10.6 50 5.9 SSW 22 28 12 15 1017.2 1017.1 0.2
13/06:00pm 22.8 19.2 9.9 44 7.0 S 19 30 10 16 1016.8 1016.7 0.2
13/05:30pm 23.9 21.0 9.5 40 7.8 S 15 24 8 13 1016.6 1016.5 0.2

Other Formats:

Comma delimited format used in spreadsheet applications
http://www.bom.gov.au/fwo/IDW60801/IDW60801.94604.axf

JavaScript Object Notation format (JSON) in row-major order
http://www.bom.gov.au/fwo/IDW60801/IDW60801.94604.json